Glad Valley, South Dakota
Current Conditions -  °F | °C
As of 7:53 PM on Friday 31 Oct 2014 (Local Time) from KHEI Reporting Station
Clear Clear  
Wind Chill: 25°   Ceiling: Unl
Heat Index: 36°   Visibility: 10mi
Dew Point: 14°   Wind: 21mph
Humidity: 41%   Direction: 130°SE
Pressure: 30.01"   Gusts: 28mph
Location:  45.4°N, 101.78°W
Report Text: KHEI 010153Z AUTO 13018G24KT 10SM CLR 02/M10 A3001 RMK AO2 SLP189 T00221100
Loading
Personal Weather Stations






























Interactive Weather Map
Tropical Storm Tracking
New forecast layout! Learn more

10-Day Weather Forecast

Advertisements
Track Severe Weather on mobile